Disclaimer

Please do not use the information listed here in-flight or in-navigation, as they are not provided to us by the airports but are provided by volunteers, so they might be outdated.

Search


Regions


Airport information page

Radio informations:
Tower (TWR) - 118.1 MHz

Airport informations:
Latitude: 18° 06' 12.31" N
Longitude: 094° 34' 50.45" W
Elevation: 36 feet - 11 meters
Operating hours: Remarks
Operating agency: Civil government, landing fees and diplomatic clearance may be required
Timezone: UTC-6(-5DT) - First Sunday in April to the last Saturday in October
Fuel: Jet A1, without icing nhibitor.

100/130 octane gasoline, leaded, MIL-L-5572F (GREEN)

Runway information:
01/19 - 6890 x 148 feet< - >2100 x 45 meters

Recent METARs:
MMMT 162151Z 00000KT 7SM BKN020 OVC080 23/19 A3000 RMK 8/72/
MMMT 162256Z RTD 00000KT 7SM SCT040 OVC080 23/19 A3000 RMK 8/42/
MMMT 162256Z RTD 00000KT 7SM SCT040 OVC080 23/19 A3000 RMK 8/42/

Airport on the map: